sensor_id;sensor_type;location;lat;lon;timestamp;P1;durP1;ratioP1;P2;durP2;ratioP2
19030;SDS011;9648;51.130;13.978;2023-03-03T00:01:16;161.30;;;57.70;;
19030;SDS011;9648;51.130;13.978;2023-03-03T00:03:43;125.38;;;54.58;;
19030;SDS011;9648;51.130;13.978;2023-03-03T00:06:10;104.17;;;52.03;;
19030;SDS011;9648;51.130;13.978;2023-03-03T00:08:39;83.60;;;47.80;;
19030;SDS011;9648;51.130;13.978;2023-03-03T00:11:06;110.80;;;49.95;;
19030;SDS011;9648;51.130;13.978;2023-03-03T00:13:36;147.38;;;52.47;;
19030;SDS011;9648;51.130;13.978;2023-03-03T00:16:13;251.38;;;56.90;;
19030;SDS011;9648;51.130;13.978;2023-03-03T00:18:51;121.32;;;52.28;;
19030;SDS011;9648;51.130;13.978;2023-03-03T00:21:23;107.45;;;51.70;;
19030;SDS011;9648;51.130;13.978;2023-03-03T00:24:04;164.10;;;54.90;;
19030;SDS011;9648;51.130;13.978;2023-03-03T00:26:41;158.05;;;55.67;;
19030;SDS011;9648;51.130;13.978;2023-03-03T00:29:23;205.15;;;60.17;;
19030;SDS011;9648;51.130;13.978;2023-03-03T00:31:56;306.52;;;67.95;;
19030;SDS011;9648;51.130;13.978;2023-03-03T00:34:37;159.70;;;60.60;;
19030;SDS011;9648;51.130;13.978;2023-03-03T00:37:10;165.85;;;60.08;;
19030;SDS011;9648;51.130;13.978;2023-03-03T00:40:01;123.93;;;57.08;;
19030;SDS011;9648;51.130;13.978;2023-03-03T00:42:41;127.07;;;54.65;;
19030;SDS011;9648;51.130;13.978;2023-03-03T00:45:21;208.43;;;62.25;;
19030;SDS011;9648;51.130;13.978;2023-03-03T00:47:53;100.38;;;53.67;;
19030;SDS011;9648;51.130;13.978;2023-03-03T00:50:25;108.30;;;54.97;;
19030;SDS011;9648;51.130;13.978;2023-03-03T00:53:04;132.25;;;56.75;;
19030;SDS011;9648;51.130;13.978;2023-03-03T00:55:33;126.28;;;52.20;;
19030;SDS011;9648;51.130;13.978;2023-03-03T00:58:01;123.45;;;51.42;;
19030;SDS011;9648;51.130;13.978;2023-03-03T01:00:28;105.80;;;49.27;;
19030;SDS011;9648;51.130;13.978;2023-03-03T01:02:56;127.22;;;51.67;;
19030;SDS011;9648;51.130;13.978;2023-03-03T01:05:26;104.82;;;49.13;;
19030;SDS011;9648;51.130;13.978;2023-03-03T01:07:53;123.13;;;48.92;;
19030;SDS011;9648;51.130;13.978;2023-03-03T01:10:20;150.18;;;48.75;;
19030;SDS011;9648;51.130;13.978;2023-03-03T01:12:46;160.70;;;50.60;;
19030;SDS011;9648;51.130;13.978;2023-03-03T01:15:14;94.50;;;49.60;;
19030;SDS011;9648;51.130;13.978;2023-03-03T01:17:41;143.73;;;50.08;;
19030;SDS011;9648;51.130;13.978;2023-03-03T01:20:11;141.73;;;50.03;;
19030;SDS011;9648;51.130;13.978;2023-03-03T01:22:41;95.77;;;48.97;;
19030;SDS011;9648;51.130;13.978;2023-03-03T01:25:08;109.03;;;50.15;;
19030;SDS011;9648;51.130;13.978;2023-03-03T01:27:35;106.22;;;48.33;;
19030;SDS011;9648;51.130;13.978;2023-03-03T01:30:02;159.00;;;53.50;;
19030;SDS011;9648;51.130;13.978;2023-03-03T01:32:30;166.85;;;51.42;;
19030;SDS011;9648;51.130;13.978;2023-03-03T01:34:57;123.40;;;50.15;;
19030;SDS011;9648;51.130;13.978;2023-03-03T01:37:25;114.57;;;50.30;;
19030;SDS011;9648;51.130;13.978;2023-03-03T01:39:52;140.15;;;51.88;;
19030;SDS011;9648;51.130;13.978;2023-03-03T01:42:20;104.50;;;50.10;;
19030;SDS011;9648;51.130;13.978;2023-03-03T01:44:47;238.38;;;54.55;;
19030;SDS011;9648;51.130;13.978;2023-03-03T01:47:14;127.00;;;52.78;;
19030;SDS011;9648;51.130;13.978;2023-03-03T01:49:43;117.68;;;51.33;;
19030;SDS011;9648;51.130;13.978;2023-03-03T01:52:17;85.78;;;44.53;;
19030;SDS011;9648;51.130;13.978;2023-03-03T01:54:53;151.98;;;45.95;;
19030;SDS011;9648;51.130;13.978;2023-03-03T01:57:25;91.88;;;43.70;;
19030;SDS011;9648;51.130;13.978;2023-03-03T01:59:54;84.10;;;43.35;;
19030;SDS011;9648;51.130;13.978;2023-03-03T02:02:24;75.50;;;43.28;;
19030;SDS011;9648;51.130;13.978;2023-03-03T02:04:52;140.27;;;45.13;;
19030;SDS011;9648;51.130;13.978;2023-03-03T02:07:19;125.70;;;45.90;;
19030;SDS011;9648;51.130;13.978;2023-03-03T02:09:49;136.93;;;46.53;;
19030;SDS011;9648;51.130;13.978;2023-03-03T02:12:21;115.80;;;46.30;;
19030;SDS011;9648;51.130;13.978;2023-03-03T02:14:52;139.43;;;45.45;;
19030;SDS011;9648;51.130;13.978;2023-03-03T02:17:18;91.90;;;40.95;;
19030;SDS011;9648;51.130;13.978;2023-03-03T02:19:46;101.72;;;41.33;;
19030;SDS011;9648;51.130;13.978;2023-03-03T02:22:20;224.70;;;45.77;;
19030;SDS011;9648;51.130;13.978;2023-03-03T02:24:54;119.38;;;43.30;;
19030;SDS011;9648;51.130;13.978;2023-03-03T02:27:26;120.10;;;41.83;;
19030;SDS011;9648;51.130;13.978;2023-03-03T02:29:58;122.75;;;42.80;;
19030;SDS011;9648;51.130;13.978;2023-03-03T02:32:34;130.23;;;41.40;;
19030;SDS011;9648;51.130;13.978;2023-03-03T02:37:58;130.13;;;43.75;;
19030;SDS011;9648;51.130;13.978;2023-03-03T02:40:33;106.03;;;42.00;;
19030;SDS011;9648;51.130;13.978;2023-03-03T02:43:06;82.38;;;37.45;;
19030;SDS011;9648;51.130;13.978;2023-03-03T02:45:40;73.85;;;35.63;;
19030;SDS011;9648;51.130;13.978;2023-03-03T02:48:07;125.93;;;40.53;;
19030;SDS011;9648;51.130;13.978;2023-03-03T02:50:34;150.45;;;39.28;;
19030;SDS011;9648;51.130;13.978;2023-03-03T02:53:01;90.90;;;39.05;;
19030;SDS011;9648;51.130;13.978;2023-03-03T02:55:27;126.03;;;39.35;;
19030;SDS011;9648;51.130;13.978;2023-03-03T02:57:54;114.90;;;37.85;;
19030;SDS011;9648;51.130;13.978;2023-03-03T03:00:23;63.15;;;35.70;;
19030;SDS011;9648;51.130;13.978;2023-03-03T03:02:50;131.27;;;39.22;;
19030;SDS011;9648;51.130;13.978;2023-03-03T03:05:16;86.97;;;36.40;;
19030;SDS011;9648;51.130;13.978;2023-03-03T03:07:43;90.32;;;36.90;;
19030;SDS011;9648;51.130;13.978;2023-03-03T03:10:10;175.30;;;40.90;;
19030;SDS011;9648;51.130;13.978;2023-03-03T03:12:37;121.38;;;40.10;;
19030;SDS011;9648;51.130;13.978;2023-03-03T03:15:23;81.18;;;38.92;;
19030;SDS011;9648;51.130;13.978;2023-03-03T03:17:50;123.70;;;41.25;;
19030;SDS011;9648;51.130;13.978;2023-03-03T03:20:17;97.35;;;39.17;;
19030;SDS011;9648;51.130;13.978;2023-03-03T03:23:02;95.03;;;38.13;;
19030;SDS011;9648;51.130;13.978;2023-03-03T03:25:48;134.45;;;37.13;;
19030;SDS011;9648;51.130;13.978;2023-03-03T03:28:34;87.22;;;37.67;;
19030;SDS011;9648;51.130;13.978;2023-03-03T03:31:21;139.38;;;40.70;;
19030;SDS011;9648;51.130;13.978;2023-03-03T03:34:07;147.70;;;39.63;;
19030;SDS011;9648;51.130;13.978;2023-03-03T03:36:34;114.30;;;38.87;;
19030;SDS011;9648;51.130;13.978;2023-03-03T03:39:02;135.75;;;36.53;;
19030;SDS011;9648;51.130;13.978;2023-03-03T03:41:49;74.35;;;36.08;;
19030;SDS011;9648;51.130;13.978;2023-03-03T03:44:16;92.32;;;36.33;;
19030;SDS011;9648;51.130;13.978;2023-03-03T03:46:44;94.85;;;37.83;;
19030;SDS011;9648;51.130;13.978;2023-03-03T03:49:10;126.75;;;38.05;;
19030;SDS011;9648;51.130;13.978;2023-03-03T03:51:37;137.05;;;38.83;;
19030;SDS011;9648;51.130;13.978;2023-03-03T03:54:05;74.53;;;35.17;;
19030;SDS011;9648;51.130;13.978;2023-03-03T03:56:32;102.72;;;36.45;;
19030;SDS011;9648;51.130;13.978;2023-03-03T03:58:59;86.28;;;35.13;;
19030;SDS011;9648;51.130;13.978;2023-03-03T04:01:25;142.48;;;35.10;;
19030;SDS011;9648;51.130;13.978;2023-03-03T04:03:56;109.85;;;38.08;;
19030;SDS011;9648;51.130;13.978;2023-03-03T04:06:23;79.10;;;34.60;;
19030;SDS011;9648;51.130;13.978;2023-03-03T04:08:50;104.35;;;35.30;;
19030;SDS011;9648;51.130;13.978;2023-03-03T04:11:17;124.07;;;35.75;;
19030;SDS011;9648;51.130;13.978;2023-03-03T04:13:43;86.50;;;36.47;;
19030;SDS011;9648;51.130;13.978;2023-03-03T04:16:10;66.80;;;34.92;;
19030;SDS011;9648;51.130;13.978;2023-03-03T04:18:37;78.47;;;35.22;;
19030;SDS011;9648;51.130;13.978;2023-03-03T04:21:05;92.32;;;34.95;;
19030;SDS011;9648;51.130;13.978;2023-03-03T04:23:32;59.13;;;31.45;;
19030;SDS011;9648;51.130;13.978;2023-03-03T04:25:58;74.57;;;32.22;;
19030;SDS011;9648;51.130;13.978;2023-03-03T04:28:25;78.40;;;33.72;;
19030;SDS011;9648;51.130;13.978;2023-03-03T04:30:54;55.13;;;29.77;;
19030;SDS011;9648;51.130;13.978;2023-03-03T04:33:21;56.58;;;30.95;;
19030;SDS011;9648;51.130;13.978;2023-03-03T04:35:48;58.05;;;30.23;;
19030;SDS011;9648;51.130;13.978;2023-03-03T04:38:17;92.88;;;32.78;;
19030;SDS011;9648;51.130;13.978;2023-03-03T04:40:43;53.22;;;28.60;;
19030;SDS011;9648;51.130;13.978;2023-03-03T04:43:10;79.30;;;31.25;;
19030;SDS011;9648;51.130;13.978;2023-03-03T04:45:37;73.40;;;31.63;;
19030;SDS011;9648;51.130;13.978;2023-03-03T04:48:04;90.45;;;30.92;;
19030;SDS011;9648;51.130;13.978;2023-03-03T04:50:31;74.85;;;31.48;;
19030;SDS011;9648;51.130;13.978;2023-03-03T04:52:58;77.63;;;28.67;;
19030;SDS011;9648;51.130;13.978;2023-03-03T04:55:27;75.15;;;32.03;;
19030;SDS011;9648;51.130;13.978;2023-03-03T04:57:53;117.40;;;30.25;;
19030;SDS011;9648;51.130;13.978;2023-03-03T05:00:20;63.35;;;28.02;;
19030;SDS011;9648;51.130;13.978;2023-03-03T05:02:47;49.22;;;27.63;;
19030;SDS011;9648;51.130;13.978;2023-03-03T05:05:14;69.18;;;28.10;;
19030;SDS011;9648;51.130;13.978;2023-03-03T05:07:40;84.17;;;29.60;;
19030;SDS011;9648;51.130;13.978;2023-03-03T05:10:07;117.50;;;29.73;;
19030;SDS011;9648;51.130;13.978;2023-03-03T05:12:36;111.43;;;28.73;;
19030;SDS011;9648;51.130;13.978;2023-03-03T05:15:04;108.18;;;28.55;;
19030;SDS011;9648;51.130;13.978;2023-03-03T05:17:34;87.22;;;29.90;;
19030;SDS011;9648;51.130;13.978;2023-03-03T05:20:00;61.60;;;28.48;;
19030;SDS011;9648;51.130;13.978;2023-03-03T05:22:29;157.77;;;30.08;;
19030;SDS011;9648;51.130;13.978;2023-03-03T05:24:56;53.33;;;26.63;;
19030;SDS011;9648;51.130;13.978;2023-03-03T05:27:23;89.63;;;29.73;;
19030;SDS011;9648;51.130;13.978;2023-03-03T05:29:51;60.05;;;28.58;;
19030;SDS011;9648;51.130;13.978;2023-03-03T05:32:18;68.50;;;27.88;;
19030;SDS011;9648;51.130;13.978;2023-03-03T05:34:44;114.05;;;28.70;;
19030;SDS011;9648;51.130;13.978;2023-03-03T05:37:11;52.00;;;27.00;;
19030;SDS011;9648;51.130;13.978;2023-03-03T05:39:39;115.47;;;27.92;;
19030;SDS011;9648;51.130;13.978;2023-03-03T05:42:08;47.83;;;25.98;;
19030;SDS011;9648;51.130;13.978;2023-03-03T05:44:37;52.00;;;26.30;;
19030;SDS011;9648;51.130;13.978;2023-03-03T05:47:05;110.05;;;28.20;;
19030;SDS011;9648;51.130;13.978;2023-03-03T05:49:31;69.82;;;26.40;;
19030;SDS011;9648;51.130;13.978;2023-03-03T05:51:58;107.20;;;28.10;;
19030;SDS011;9648;51.130;13.978;2023-03-03T05:54:25;123.13;;;26.92;;
19030;SDS011;9648;51.130;13.978;2023-03-03T05:56:52;150.37;;;29.07;;
19030;SDS011;9648;51.130;13.978;2023-03-03T05:59:20;82.40;;;26.58;;
19030;SDS011;9648;51.130;13.978;2023-03-03T06:01:47;58.63;;;24.90;;
19030;SDS011;9648;51.130;13.978;2023-03-03T06:04:15;41.95;;;23.85;;
19030;SDS011;9648;51.130;13.978;2023-03-03T06:06:42;89.45;;;26.73;;
19030;SDS011;9648;51.130;13.978;2023-03-03T06:09:08;63.72;;;24.58;;
19030;SDS011;9648;51.130;13.978;2023-03-03T06:11:35;50.72;;;23.10;;
19030;SDS011;9648;51.130;13.978;2023-03-03T06:14:02;43.83;;;22.30;;
19030;SDS011;9648;51.130;13.978;2023-03-03T06:16:29;46.20;;;24.02;;
19030;SDS011;9648;51.130;13.978;2023-03-03T06:18:55;43.83;;;22.95;;
19030;SDS011;9648;51.130;13.978;2023-03-03T06:21:23;43.15;;;23.10;;
19030;SDS011;9648;51.130;13.978;2023-03-03T06:23:50;46.17;;;22.92;;
19030;SDS011;9648;51.130;13.978;2023-03-03T06:26:17;46.15;;;22.05;;
19030;SDS011;9648;51.130;13.978;2023-03-03T06:28:43;45.47;;;22.95;;
19030;SDS011;9648;51.130;13.978;2023-03-03T06:31:10;43.37;;;22.53;;
19030;SDS011;9648;51.130;13.978;2023-03-03T06:33:37;43.92;;;22.27;;
19030;SDS011;9648;51.130;13.978;2023-03-03T06:36:04;43.40;;;22.50;;
19030;SDS011;9648;51.130;13.978;2023-03-03T06:38:33;40.70;;;21.30;;
19030;SDS011;9648;51.130;13.978;2023-03-03T06:40:59;49.20;;;22.98;;
19030;SDS011;9648;51.130;13.978;2023-03-03T06:43:31;54.43;;;23.23;;
19030;SDS011;9648;51.130;13.978;2023-03-03T06:45:58;44.85;;;21.55;;
19030;SDS011;9648;51.130;13.978;2023-03-03T06:48:24;51.67;;;22.10;;
19030;SDS011;9648;51.130;13.978;2023-03-03T06:50:51;47.13;;;20.98;;
19030;SDS011;9648;51.130;13.978;2023-03-03T06:53:18;49.25;;;20.98;;
19030;SDS011;9648;51.130;13.978;2023-03-03T06:55:46;89.50;;;23.40;;
19030;SDS011;9648;51.130;13.978;2023-03-03T06:58:14;99.05;;;22.27;;
19030;SDS011;9648;51.130;13.978;2023-03-03T07:00:42;96.57;;;23.67;;
19030;SDS011;9648;51.130;13.978;2023-03-03T07:03:14;56.28;;;22.55;;
19030;SDS011;9648;51.130;13.978;2023-03-03T07:05:42;59.85;;;20.45;;
19030;SDS011;9648;51.130;13.978;2023-03-03T07:08:11;59.08;;;20.90;;
19030;SDS011;9648;51.130;13.978;2023-03-03T07:10:39;146.68;;;22.10;;
19030;SDS011;9648;51.130;13.978;2023-03-03T07:13:15;49.92;;;21.38;;
19030;SDS011;9648;51.130;13.978;2023-03-03T07:15:44;120.05;;;21.88;;
19030;SDS011;9648;51.130;13.978;2023-03-03T07:18:20;50.78;;;19.05;;
19030;SDS011;9648;51.130;13.978;2023-03-03T07:20:56;66.10;;;21.75;;
19030;SDS011;9648;51.130;13.978;2023-03-03T07:23:25;66.65;;;18.98;;
19030;SDS011;9648;51.130;13.978;2023-03-03T07:25:53;50.15;;;19.42;;
19030;SDS011;9648;51.130;13.978;2023-03-03T07:28:23;65.50;;;21.53;;
19030;SDS011;9648;51.130;13.978;2023-03-03T07:30:52;65.38;;;20.05;;
19030;SDS011;9648;51.130;13.978;2023-03-03T07:33:22;62.63;;;19.33;;
19030;SDS011;9648;51.130;13.978;2023-03-03T07:35:51;48.43;;;19.43;;
19030;SDS011;9648;51.130;13.978;2023-03-03T07:38:22;64.13;;;19.37;;
19030;SDS011;9648;51.130;13.978;2023-03-03T07:40:54;58.42;;;20.13;;
19030;SDS011;9648;51.130;13.978;2023-03-03T07:43:33;65.45;;;20.42;;
19030;SDS011;9648;51.130;13.978;2023-03-03T07:46:02;46.80;;;20.00;;
19030;SDS011;9648;51.130;13.978;2023-03-03T07:48:45;44.17;;;20.08;;
19030;SDS011;9648;51.130;13.978;2023-03-03T07:51:13;42.60;;;19.00;;
19030;SDS011;9648;51.130;13.978;2023-03-03T07:53:46;48.13;;;18.67;;
19030;SDS011;9648;51.130;13.978;2023-03-03T07:56:20;39.58;;;17.25;;
19030;SDS011;9648;51.130;13.978;2023-03-03T07:58:54;31.67;;;14.70;;
19030;SDS011;9648;51.130;13.978;2023-03-03T08:01:35;30.23;;;14.70;;
19030;SDS011;9648;51.130;13.978;2023-03-03T08:04:16;30.50;;;14.13;;
19030;SDS011;9648;51.130;13.978;2023-03-03T08:06:48;25.63;;;13.30;;
19030;SDS011;9648;51.130;13.978;2023-03-03T08:09:29;22.38;;;11.60;;
19030;SDS011;9648;51.130;13.978;2023-03-03T08:12:28;23.50;;;12.60;;
19030;SDS011;9648;51.130;13.978;2023-03-03T08:17:48;24.83;;;12.77;;
19030;SDS011;9648;51.130;13.978;2023-03-03T08:23:12;26.45;;;11.77;;
19030;SDS011;9648;51.130;13.978;2023-03-03T08:25:40;22.45;;;11.70;;
19030;SDS011;9648;51.130;13.978;2023-03-03T08:28:07;23.48;;;12.70;;
19030;SDS011;9648;51.130;13.978;2023-03-03T08:30:35;24.80;;;12.23;;
19030;SDS011;9648;51.130;13.978;2023-03-03T08:33:02;22.42;;;12.35;;
19030;SDS011;9648;51.130;13.978;2023-03-03T08:35:29;20.63;;;12.25;;
19030;SDS011;9648;51.130;13.978;2023-03-03T08:37:56;19.83;;;11.18;;
19030;SDS011;9648;51.130;13.978;2023-03-03T08:40:23;24.83;;;10.57;;
19030;SDS011;9648;51.130;13.978;2023-03-03T08:42:50;17.70;;;10.33;;
19030;SDS011;9648;51.130;13.978;2023-03-03T08:45:18;18.53;;;10.40;;
19030;SDS011;9648;51.130;13.978;2023-03-03T08:47:46;13.95;;;8.88;;
19030;SDS011;9648;51.130;13.978;2023-03-03T08:50:13;17.10;;;9.35;;
19030;SDS011;9648;51.130;13.978;2023-03-03T08:52:40;15.10;;;8.60;;
19030;SDS011;9648;51.130;13.978;2023-03-03T08:55:07;14.30;;;8.95;;
19030;SDS011;9648;51.130;13.978;2023-03-03T08:57:34;19.80;;;8.98;;
19030;SDS011;9648;51.130;13.978;2023-03-03T09:00:01;15.90;;;8.93;;
19030;SDS011;9648;51.130;13.978;2023-03-03T09:02:28;13.10;;;8.00;;
19030;SDS011;9648;51.130;13.978;2023-03-03T09:04:56;13.80;;;7.78;;
19030;SDS011;9648;51.130;13.978;2023-03-03T09:07:23;16.58;;;7.90;;
19030;SDS011;9648;51.130;13.978;2023-03-03T09:09:49;12.65;;;7.57;;
19030;SDS011;9648;51.130;13.978;2023-03-03T09:12:17;14.82;;;7.32;;
19030;SDS011;9648;51.130;13.978;2023-03-03T09:14:48;12.20;;;6.87;;
19030;SDS011;9648;51.130;13.978;2023-03-03T09:17:18;10.03;;;6.90;;
19030;SDS011;9648;51.130;13.978;2023-03-03T09:19:49;10.05;;;5.97;;
19030;SDS011;9648;51.130;13.978;2023-03-03T09:22:19;10.25;;;6.30;;
19030;SDS011;9648;51.130;13.978;2023-03-03T09:24:47;9.23;;;5.90;;
19030;SDS011;9648;51.130;13.978;2023-03-03T09:27:18;9.10;;;5.80;;
19030;SDS011;9648;51.130;13.978;2023-03-03T09:29:50;9.73;;;6.07;;
19030;SDS011;9648;51.130;13.978;2023-03-03T09:32:21;10.75;;;6.35;;
19030;SDS011;9648;51.130;13.978;2023-03-03T09:34:53;10.70;;;6.55;;
19030;SDS011;9648;51.130;13.978;2023-03-03T09:37:22;15.30;;;7.32;;
19030;SDS011;9648;51.130;13.978;2023-03-03T09:39:50;12.23;;;6.57;;
19030;SDS011;9648;51.130;13.978;2023-03-03T09:42:27;26.25;;;7.72;;
19030;SDS011;9648;51.130;13.978;2023-03-03T09:48:09;9.70;;;6.00;;
19030;SDS011;9648;51.130;13.978;2023-03-03T09:50:52;10.07;;;6.55;;
19030;SDS011;9648;51.130;13.978;2023-03-03T09:53:43;23.13;;;7.40;;
19030;SDS011;9648;51.130;13.978;2023-03-03T09:56:31;24.00;;;7.28;;
19030;SDS011;9648;51.130;13.978;2023-03-03T09:59:04;18.20;;;7.57;;
19030;SDS011;9648;51.130;13.978;2023-03-03T10:01:44;45.17;;;8.93;;
19030;SDS011;9648;51.130;13.978;2023-03-03T10:04:18;14.50;;;7.60;;
19030;SDS011;9648;51.130;13.978;2023-03-03T10:07:00;16.85;;;7.75;;
19030;SDS011;9648;51.130;13.978;2023-03-03T10:09:45;22.63;;;7.63;;
19030;SDS011;9648;51.130;13.978;2023-03-03T10:12:23;41.00;;;8.35;;
19030;SDS011;9648;51.130;13.978;2023-03-03T10:14:59;31.17;;;7.78;;
19030;SDS011;9648;51.130;13.978;2023-03-03T10:17:42;14.30;;;8.35;;
19030;SDS011;9648;51.130;13.978;2023-03-03T10:23:04;38.50;;;8.90;;
19030;SDS011;9648;51.130;13.978;2023-03-03T10:25:41;15.48;;;8.38;;
19030;SDS011;9648;51.130;13.978;2023-03-03T10:28:17;18.75;;;8.68;;
19030;SDS011;9648;51.130;13.978;2023-03-03T10:31:07;16.63;;;8.35;;
19030;SDS011;9648;51.130;13.978;2023-03-03T10:33:45;35.90;;;8.60;;
19030;SDS011;9648;51.130;13.978;2023-03-03T10:36:24;15.32;;;7.10;;
19030;SDS011;9648;51.130;13.978;2023-03-03T10:39:09;11.18;;;6.75;;
19030;SDS011;9648;51.130;13.978;2023-03-03T10:41:59;22.63;;;7.40;;
19030;SDS011;9648;51.130;13.978;2023-03-03T10:44:51;12.82;;;6.80;;
19030;SDS011;9648;51.130;13.978;2023-03-03T10:47:47;13.90;;;6.45;;
19030;SDS011;9648;51.130;13.978;2023-03-03T10:50:32;11.80;;;6.82;;
19030;SDS011;9648;51.130;13.978;2023-03-03T10:53:17;15.18;;;7.80;;
19030;SDS011;9648;51.130;13.978;2023-03-03T10:55:51;34.95;;;8.10;;
19030;SDS011;9648;51.130;13.978;2023-03-03T10:58:35;15.75;;;7.90;;
19030;SDS011;9648;51.130;13.978;2023-03-03T11:01:13;11.85;;;7.78;;
19030;SDS011;9648;51.130;13.978;2023-03-03T11:06:47;16.90;;;7.25;;
19030;SDS011;9648;51.130;13.978;2023-03-03T11:09:25;19.40;;;8.20;;
19030;SDS011;9648;51.130;13.978;2023-03-03T11:12:05;10.77;;;6.95;;
19030;SDS011;9648;51.130;13.978;2023-03-03T11:14:46;12.70;;;7.82;;
19030;SDS011;9648;51.130;13.978;2023-03-03T11:17:21;12.13;;;7.53;;
19030;SDS011;9648;51.130;13.978;2023-03-03T11:19:58;26.10;;;7.75;;
19030;SDS011;9648;51.130;13.978;2023-03-03T11:22:33;10.30;;;7.00;;
19030;SDS011;9648;51.130;13.978;2023-03-03T11:25:15;13.77;;;6.78;;
19030;SDS011;9648;51.130;13.978;2023-03-03T11:27:58;10.23;;;6.85;;
19030;SDS011;9648;51.130;13.978;2023-03-03T11:30:35;11.52;;;6.97;;
19030;SDS011;9648;51.130;13.978;2023-03-03T11:33:17;12.25;;;7.47;;
19030;SDS011;9648;51.130;13.978;2023-03-03T11:35:49;11.93;;;7.60;;
19030;SDS011;9648;51.130;13.978;2023-03-03T11:38:29;10.30;;;7.03;;
19030;SDS011;9648;51.130;13.978;2023-03-03T11:41:03;10.85;;;6.50;;
19030;SDS011;9648;51.130;13.978;2023-03-03T11:43:40;9.90;;;6.60;;
19030;SDS011;9648;51.130;13.978;2023-03-03T11:46:13;10.75;;;7.07;;
19030;SDS011;9648;51.130;13.978;2023-03-03T11:48:45;9.98;;;6.75;;
19030;SDS011;9648;51.130;13.978;2023-03-03T11:51:19;9.10;;;6.47;;
19030;SDS011;9648;51.130;13.978;2023-03-03T11:53:56;9.38;;;6.35;;
19030;SDS011;9648;51.130;13.978;2023-03-03T11:56:26;10.73;;;6.80;;
19030;SDS011;9648;51.130;13.978;2023-03-03T11:59:01;11.60;;;7.32;;
19030;SDS011;9648;51.130;13.978;2023-03-03T12:01:41;10.37;;;6.90;;
19030;SDS011;9648;51.130;13.978;2023-03-03T12:04:14;10.60;;;6.75;;
19030;SDS011;9648;51.130;13.978;2023-03-03T12:06:50;10.60;;;6.82;;
19030;SDS011;9648;51.130;13.978;2023-03-03T12:09:29;11.88;;;7.00;;
19030;SDS011;9648;51.130;13.978;2023-03-03T12:12:04;10.90;;;7.22;;
19030;SDS011;9648;51.130;13.978;2023-03-03T12:14:37;11.00;;;7.00;;
19030;SDS011;9648;51.130;13.978;2023-03-03T12:17:18;11.95;;;7.80;;
19030;SDS011;9648;51.130;13.978;2023-03-03T12:19:56;10.98;;;7.22;;
19030;SDS011;9648;51.130;13.978;2023-03-03T12:22:30;12.98;;;7.80;;
19030;SDS011;9648;51.130;13.978;2023-03-03T12:25:04;12.25;;;7.80;;
19030;SDS011;9648;51.130;13.978;2023-03-03T12:27:44;11.73;;;7.07;;
19030;SDS011;9648;51.130;13.978;2023-03-03T12:30:19;11.07;;;6.80;;
19030;SDS011;9648;51.130;13.978;2023-03-03T12:33:11;10.35;;;6.57;;
19030;SDS011;9648;51.130;13.978;2023-03-03T12:35:48;10.80;;;7.18;;
19030;SDS011;9648;51.130;13.978;2023-03-03T12:38:22;10.10;;;6.50;;
19030;SDS011;9648;51.130;13.978;2023-03-03T12:41:02;10.52;;;6.50;;
19030;SDS011;9648;51.130;13.978;2023-03-03T12:46:21;9.07;;;6.10;;
19030;SDS011;9648;51.130;13.978;2023-03-03T12:48:55;8.85;;;5.80;;
19030;SDS011;9648;51.130;13.978;2023-03-03T12:51:29;8.73;;;5.93;;
19030;SDS011;9648;51.130;13.978;2023-03-03T12:54:13;10.00;;;6.20;;
19030;SDS011;9648;51.130;13.978;2023-03-03T12:56:50;8.48;;;5.63;;
19030;SDS011;9648;51.130;13.978;2023-03-03T12:59:21;7.35;;;5.30;;
19030;SDS011;9648;51.130;13.978;2023-03-03T13:02:03;7.47;;;5.20;;
19030;SDS011;9648;51.130;13.978;2023-03-03T13:04:50;9.07;;;6.15;;
19030;SDS011;9648;51.130;13.978;2023-03-03T13:07:22;8.18;;;5.80;;
19030;SDS011;9648;51.130;13.978;2023-03-03T13:10:08;9.43;;;6.03;;
19030;SDS011;9648;51.130;13.978;2023-03-03T13:12:43;9.65;;;6.60;;
19030;SDS011;9648;51.130;13.978;2023-03-03T13:15:15;9.35;;;6.53;;
19030;SDS011;9648;51.130;13.978;2023-03-03T13:17:49;11.57;;;7.13;;
19030;SDS011;9648;51.130;13.978;2023-03-03T13:20:27;11.35;;;6.90;;
19030;SDS011;9648;51.130;13.978;2023-03-03T13:23:03;10.80;;;7.22;;
19030;SDS011;9648;51.130;13.978;2023-03-03T13:25:40;11.63;;;7.82;;
19030;SDS011;9648;51.130;13.978;2023-03-03T13:28:17;12.75;;;7.80;;
19030;SDS011;9648;51.130;13.978;2023-03-03T13:30:53;10.77;;;6.95;;
19030;SDS011;9648;51.130;13.978;2023-03-03T13:33:24;11.43;;;7.22;;
19030;SDS011;9648;51.130;13.978;2023-03-03T13:35:55;11.57;;;7.47;;
19030;SDS011;9648;51.130;13.978;2023-03-03T13:38:24;11.77;;;7.50;;
19030;SDS011;9648;51.130;13.978;2023-03-03T13:40:56;13.10;;;8.23;;
19030;SDS011;9648;51.130;13.978;2023-03-03T13:43:29;12.13;;;7.90;;
19030;SDS011;9648;51.130;13.978;2023-03-03T13:46:07;12.60;;;7.63;;
19030;SDS011;9648;51.130;13.978;2023-03-03T13:48:47;13.57;;;8.38;;
19030;SDS011;9648;51.130;13.978;2023-03-03T13:51:38;12.80;;;8.33;;
19030;SDS011;9648;51.130;13.978;2023-03-03T13:54:13;13.80;;;8.43;;
19030;SDS011;9648;51.130;13.978;2023-03-03T13:59:39;13.35;;;8.15;;
19030;SDS011;9648;51.130;13.978;2023-03-03T14:02:19;13.45;;;8.55;;
19030;SDS011;9648;51.130;13.978;2023-03-03T14:05:02;12.60;;;8.50;;
19030;SDS011;9648;51.130;13.978;2023-03-03T14:07:38;13.03;;;8.57;;
19030;SDS011;9648;51.130;13.978;2023-03-03T14:10:10;13.90;;;8.40;;
19030;SDS011;9648;51.130;13.978;2023-03-03T14:12:45;13.97;;;8.50;;
19030;SDS011;9648;51.130;13.978;2023-03-03T14:15:17;14.20;;;9.05;;
19030;SDS011;9648;51.130;13.978;2023-03-03T14:17:54;14.90;;;9.73;;
19030;SDS011;9648;51.130;13.978;2023-03-03T14:20:34;15.57;;;9.60;;
19030;SDS011;9648;51.130;13.978;2023-03-03T14:23:09;14.27;;;9.57;;
19030;SDS011;9648;51.130;13.978;2023-03-03T14:25:57;14.65;;;9.45;;
19030;SDS011;9648;51.130;13.978;2023-03-03T14:28:36;14.07;;;9.32;;
19030;SDS011;9648;51.130;13.978;2023-03-03T14:31:09;13.57;;;9.00;;
19030;SDS011;9648;51.130;13.978;2023-03-03T14:33:42;13.32;;;8.88;;
19030;SDS011;9648;51.130;13.978;2023-03-03T14:36:24;15.55;;;9.50;;
19030;SDS011;9648;51.130;13.978;2023-03-03T14:38:54;15.65;;;9.60;;
19030;SDS011;9648;51.130;13.978;2023-03-03T14:41:22;12.73;;;8.23;;
19030;SDS011;9648;51.130;13.978;2023-03-03T14:44:19;13.73;;;8.55;;
19030;SDS011;9648;51.130;13.978;2023-03-03T14:46:59;13.30;;;8.20;;
19030;SDS011;9648;51.130;13.978;2023-03-03T14:49:44;12.95;;;8.55;;
19030;SDS011;9648;51.130;13.978;2023-03-03T14:52:18;13.57;;;9.57;;
19030;SDS011;9648;51.130;13.978;2023-03-03T14:54:49;12.95;;;8.35;;
19030;SDS011;9648;51.130;13.978;2023-03-03T14:57:18;13.60;;;9.00;;
19030;SDS011;9648;51.130;13.978;2023-03-03T14:59:56;14.32;;;9.38;;
19030;SDS011;9648;51.130;13.978;2023-03-03T15:02:29;14.80;;;10.20;;
19030;SDS011;9648;51.130;13.978;2023-03-03T15:05:12;12.38;;;8.63;;
19030;SDS011;9648;51.130;13.978;2023-03-03T15:07:44;12.32;;;9.05;;
19030;SDS011;9648;51.130;13.978;2023-03-03T15:10:14;13.82;;;8.75;;
19030;SDS011;9648;51.130;13.978;2023-03-03T15:12:52;13.40;;;8.63;;
19030;SDS011;9648;51.130;13.978;2023-03-03T15:15:20;15.77;;;10.00;;
19030;SDS011;9648;51.130;13.978;2023-03-03T15:17:53;15.57;;;9.60;;